• Join FlightAware (Why Join?)
  • Login
  • US Flag 
06:33AM EDT


 

Airport Tracker/Info


-or-


 

Live Flight TrackerFlight Track Log ✈ WAV761 ✈ 20-Aug-2013 ✈ PATA / TAL - PAFA / FAI

Flight Track Log - Related Links

Times and Time Zones

All times are in EDT time to prevent confusion due to time zone crossing. See the WAV761 flight status page for this flight to view local times or setup timezone preferences in your user account.

Time Position Orientation Groundspeed Altitude Reporting Facility
EDT Latitude Longitude Course Direction KTS MPH feet Rate Location/Type
10:15PM 65.1000 -151.5167 140° Southeast 170 196 6,100  Level Anchorage Center
10:16PM 65.0667 -151.4500 140° Southeast 140 161 7,000 420 Climbing Anchorage Center
10:17PM 65.0667 -151.3333 90° East 160 184 7,000  Level Anchorage Center
10:18PM 65.0667 -151.2167 90° East 180 207 7,000 240 Level Anchorage Center
10:19PM 65.0667 -151.1000 90° East 190 219 7,500 600 Climbing Anchorage Center
10:20PM 65.0500 -150.9833 109° East 170 196 8,200 720 Climbing Anchorage Center
10:21PM 65.0333 -150.8833 112° Southeast 160 184 9,000 360 Climbing Anchorage Center
10:22PM 65.0333 -150.7667 90° East 200 230 9,000  Level Anchorage Center
10:23PM 65.0167 -150.6333 106° East 190 219 9,000  Level Anchorage Center
10:24PM 65.0167 -150.5000 90° East 200 230 9,000  Level Anchorage Center
10:25PM 65.0000 -150.3667 106° East 210 242 9,000  Level Anchorage Center
10:26PM 65.0000 -150.2333 90° East 210 242 9,000  Level Anchorage Center
10:27PM 64.9833 -150.1000 106° East 200 230 9,000  Level Anchorage Center
10:28PM 64.9667 -149.9667 106° East 200 230 9,000  Level Anchorage Center
10:29PM 64.9667 -149.8333 90° East 210 242 9,000  Level Anchorage Center
10:30PM 64.9500 -149.7000 106° East 200 230 9,000  Level Anchorage Center
10:31PM 64.9500 -149.5667 90° East 210 242 9,000  Level Anchorage Center
10:32PM 64.9333 -149.4333 106° East 210 242 9,000  Level Anchorage Center
10:34PM 64.9334 -149.2261 90° East  Level FlightAware Approximate
10:41PM 64.8626 -148.4861 101° East  Level FlightAware Approximate
10:42PM 64.8534 -148.3804 102° East  Level FlightAware Approximate
10:43PM 64.8442 -148.2749 102° East  Level FlightAware Approximate
10:44PM 64.8348 -148.1694 102° East  Level FlightAware Approximate
10:45PM 64.8254 -148.0640 102° East  Level FlightAware Approximate
10:46PM 64.8156 -147.9589 109° East  Level FlightAware Approximate
10:47PM 64.8010 -147.8569 109° East  Level FlightAware Approximate
10:48PM 64.8000 -147.8500 109° East  Level FlightAware Approximate
10:49PM 64.8151 -147.8564 109° East  Level Estimated
10:50PM 64.8151 -147.8564 109° East  Level Estimated
10:51PM 64.8151 -147.8564 109° East  Level Estimated
10:52PM 64.8151 -147.8564 109° East  Level Estimated
10:53PM 64.8151 -147.8564 109° East  Level Estimated
10:54PM 64.8151 -147.8564 109° East  Level Estimated
10:55PM 64.8151 -147.8564 109° East  Level Estimated
10:56PM 64.8151 -147.8564 109° East  Level Estimated
10:57PM 64.8151 -147.8564 109° East  Level Estimated
10:58PM 64.8151 -147.8564 109° East  Level Estimated
10:59PM 64.8151 -147.8564 109° East  Level Estimated
11:00PM 64.8151 -147.8564 109° East  Level Estimated
11:01PM 64.8151 -147.8564 109° East  Level Estimated
11:02PM 64.8151 -147.8564 109° East  Level Estimated